地図

経路データ

SID SEASON NUMBER BASIN SUBBASIN NAME ISO_TIME NATURE LAT LON WMO_WIND WMO_PRES WMO_AGENCY TRACK_TYPE DIST2LAND LANDFALL IFLAG USA_AGENCY USA_ATCF_ID USA_LAT USA_LON USA_RECORD USA_STATUS USA_WIND USA_PRES USA_SSHS USA_R34_NE USA_R34_SE USA_R34_SW USA_R34_NW USA_R50_NE USA_R50_SE USA_R50_SW USA_R50_NW USA_R64_NE USA_R64_SE USA_R64_SW USA_R64_NW USA_POCI USA_ROCI USA_RMW USA_EYE TOKYO_LAT TOKYO_LON TOKYO_GRADE TOKYO_WIND TOKYO_PRES TOKYO_R50_DIR TOKYO_R50_LONG TOKYO_R50_SHORT TOKYO_R30_DIR TOKYO_R30_LONG TOKYO_R30_SHORT TOKYO_LAND CMA_LAT CMA_LON CMA_CAT CMA_WIND CMA_PRES HKO_LAT HKO_LON HKO_CAT HKO_WIND HKO_PRES NEWDELHI_LAT NEWDELHI_LON NEWDELHI_GRADE NEWDELHI_WIND NEWDELHI_PRES NEWDELHI_CI NEWDELHI_DP NEWDELHI_POCI REUNION_LAT REUNION_LON REUNION_TYPE REUNION_WIND REUNION_PRES REUNION_TNUM REUNION_CI REUNION_RMW REUNION_R34_NE REUNION_R34_SE REUNION_R34_SW REUNION_R34_NW REUNION_R50_NE REUNION_R50_SE REUNION_R50_SW REUNION_R50_NW REUNION_R64_NE REUNION_R64_SE REUNION_R64_SW REUNION_R64_NW BOM_LAT BOM_LON BOM_TYPE BOM_WIND BOM_PRES BOM_TNUM BOM_CI BOM_RMW BOM_R34_NE BOM_R34_SE BOM_R34_SW BOM_R34_NW BOM_R50_NE BOM_R50_SE BOM_R50_SW BOM_R50_NW BOM_R64_NE BOM_R64_SE BOM_R64_SW BOM_R64_NW BOM_ROCI BOM_POCI BOM_EYE BOM_POS_METHOD BOM_PRES_METHOD NADI_LAT NADI_LON NADI_CAT NADI_WIND NADI_PRES WELLINGTON_LAT WELLINGTON_LON WELLINGTON_WIND WELLINGTON_PRES DS824_LAT DS824_LON DS824_STAGE DS824_WIND DS824_PRES TD9636_LAT TD9636_LON TD9636_STAGE TD9636_WIND TD9636_PRES TD9635_LAT TD9635_LON TD9635_WIND TD9635_PRES TD9635_ROCI NEUMANN_LAT NEUMANN_LON NEUMANN_CLASS NEUMANN_WIND NEUMANN_PRES MLC_LAT MLC_LON MLC_CLASS MLC_WIND MLC_PRES USA_GUST BOM_GUST BOM_GUST_PER REUNION_GUST REUNION_GUST_PER USA_SEAHGT USA_SEARAD_NE USA_SEARAD_SE USA_SEARAD_SW USA_SEARAD_NW STORM_SPEED STORM_DIR
1966194N17303 1966 39 NA NA CELIA 1966-07-13 00:00:00 TS 17.0000 -57.5000 30 hurdat_atl main 800 800 O_____________ hurdat_atl AL031966 17.0000 -57.5000 TD 30 -1 14 317
1966194N17303 1966 39 NA NA CELIA 1966-07-13 03:00:00 TS 17.4927 -57.9820 main 808 750 P_____________ AL031966 17.4927 -57.9820 TD 32 -1 14 316
1966194N17303 1966 39 NA NA CELIA 1966-07-13 06:00:00 TS 18.0000 -58.5000 35 hurdat_atl main 750 696 O_____________ hurdat_atl AL031966 18.0000 -58.5000 TS 35 0 15 315
1966194N17303 1966 39 NA NA CELIA 1966-07-13 09:00:00 TS 18.5349 -59.0779 main 685 626 P_____________ AL031966 18.5349 -59.0779 TS 35 0 16 314
1966194N17303 1966 39 NA NA CELIA 1966-07-13 12:00:00 TS 19.1000 -59.7000 35 hurdat_atl main 626 573 O_____________ hurdat_atl AL031966 19.1000 -59.7000 TS 35 0 17 314
1966194N17303 1966 39 NA NA CELIA 1966-07-13 15:00:00 TS 19.7073 -60.3426 main 575 527 P_____________ AL031966 19.7073 -60.3426 TS 37 0 17 314
1966194N17303 1966 39 NA NA CELIA 1966-07-13 18:00:00 TS 20.3000 -61.0000 40 hurdat_atl main 527 497 O_____________ hurdat_atl AL031966 20.3000 -61.0000 TS 40 0 17 312
1966194N17303 1966 39 NA NA CELIA 1966-07-13 21:00:00 TS 20.8297 -61.6504 main 488 473 P_____________ AL031966 20.8297 -61.6504 TS 40 0 16 309
1966194N17303 1966 39 NA NA CELIA 1966-07-14 00:00:00 NR 21.3000 -62.3000 40 hurdat_atl main 473 462 O_____________ hurdat_atl AL031966 21.3000 -62.3000 DB 40 -3 15 307
1966194N17303 1966 39 NA NA CELIA 1966-07-14 03:00:00 NR 21.7448 -62.9576 main 458 458 P_____________ AL031966 21.7448 -62.9576 DB 40 -3 15 304
1966194N17303 1966 39 NA NA CELIA 1966-07-14 06:00:00 NR 22.1000 -63.6000 40 hurdat_atl main 463 458 O_____________ hurdat_atl AL031966 22.1000 -63.6000 DB 40 -3 13 297
1966194N17303 1966 39 NA NA CELIA 1966-07-14 09:00:00 NR 22.3448 -64.2229 main 459 459 P_____________ AL031966 22.3448 -64.2229 DB 40 -3 12 290
1966194N17303 1966 39 NA NA CELIA 1966-07-14 12:00:00 NR 22.5000 -64.8000 40 hurdat_atl main 466 462 O_____________ hurdat_atl AL031966 22.5000 -64.8000 DB 40 -3 10 286
1966194N17303 1966 39 NA NA CELIA 1966-07-14 15:00:00 NR 22.6220 -65.3002 main 470 470 P_____________ AL031966 22.6220 -65.3002 DB 40 -3 9 282
1966194N17303 1966 39 NA NA CELIA 1966-07-14 18:00:00 NR 22.7000 -65.8000 40 1012 hurdat_atl main 480 480 O_____________ hurdat_atl AL031966 22.7000 -65.8000 DB 40 1012 -3 10 278
1966194N17303 1966 39 NA NA CELIA 1966-07-14 21:00:00 NR 22.7574 -66.3851 main 492 458 P_____________ AL031966 22.7574 -66.3851 DB 37 -3 11 275
1966194N17303 1966 39 NA NA CELIA 1966-07-15 00:00:00 NR 22.8000 -67.0000 35 hurdat_atl main 458 429 O_____________ hurdat_atl AL031966 22.8000 -67.0000 DB 35 -3 11 275
1966194N17303 1966 39 NA NA CELIA 1966-07-15 03:00:00 NR 22.8498 -67.6000 main 429 413 P_____________ AL031966 22.8498 -67.6000 DB 35 -3 11 275
1966194N17303 1966 39 NA NA CELIA 1966-07-15 06:00:00 NR 22.9000 -68.2000 35 hurdat_atl main 413 392 O_____________ hurdat_atl AL031966 22.9000 -68.2000 DB 35 -3 11 275
1966194N17303 1966 39 NA NA CELIA 1966-07-15 09:00:00 NR 22.9494 -68.7701 main 389 378 P_____________ AL031966 22.9494 -68.7701 DB 32 -3 11 275
1966194N17303 1966 39 NA NA CELIA 1966-07-15 12:00:00 NR 23.0000 -69.4000 30 1015 hurdat_atl main 378 360 O_____________ hurdat_atl AL031966 23.0000 -69.4000 DB 30 1015 -3 13 274
1966194N17303 1966 39 NA NA CELIA 1966-07-15 15:00:00 NR 23.0503 -70.1925 main 358 295 P_____________ AL031966 23.0503 -70.1925 DB 27 -3 15 274
1966194N17303 1966 39 NA NA CELIA 1966-07-15 18:00:00 NR 23.1000 -71.0000 25 hurdat_atl main 295 251 O_____________ hurdat_atl AL031966 23.1000 -71.0000 DB 25 -3 14 274
1966194N17303 1966 39 NA NA CELIA 1966-07-15 21:00:00 NR 23.1497 -71.6950 main 251 234 P_____________ AL031966 23.1497 -71.6950 DB 25 -3 12 275
1966194N17303 1966 39 NA NA CELIA 1966-07-16 00:00:00 NR 23.2000 -72.3000 25 hurdat_atl main 234 224 O_____________ hurdat_atl AL031966 23.2000 -72.3000 DB 25 -3 11 276
1966194N17303 1966 39 NA NA CELIA 1966-07-16 03:00:00 NR 23.2575 -72.8824 main 235 234 P_____________ AL031966 23.2575 -72.8824 DB 25 -3 9 276
1966194N17303 1966 39 NA NA CELIA 1966-07-16 06:00:00 NR 23.3000 -73.3000 25 hurdat_atl main 235 235 O_____________ hurdat_atl AL031966 23.3000 -73.3000 DB 25 -3 5 275
1966194N17303 1966 39 NA NA CELIA 1966-07-16 09:00:00 NR 23.2997 -73.4601 main 236 236 P_____________ AL031966 23.2997 -73.4601 DB 25 -3 2 270
1966194N17303 1966 39 NA NA CELIA 1966-07-16 12:00:00 NR 23.3000 -73.5000 25 hurdat_atl main 236 236 O_____________ hurdat_atl AL031966 23.3000 -73.5000 DB 25 -3 1 288
1966194N17303 1966 39 NA NA CELIA 1966-07-16 15:00:00 NR 23.3425 -73.6000 main 238 238 P_____________ AL031966 23.3425 -73.6000 DB 25 -3 2 299
1966194N17303 1966 39 NA NA CELIA 1966-07-16 18:00:00 NR 23.4000 -73.7000 25 hurdat_atl main 251 251 O_____________ hurdat_atl AL031966 23.4000 -73.7000 DB 25 -3 2 302
1966194N17303 1966 39 NA NA CELIA 1966-07-16 21:00:00 NR 23.4500 -73.7925 main 253 253 P_____________ AL031966 23.4500 -73.7925 DB 25 -3 2 299
1966194N17303 1966 39 NA NA CELIA 1966-07-17 00:00:00 NR 23.5000 -73.9000 25 hurdat_atl main 267 267 O_____________ hurdat_atl AL031966 23.5000 -73.9000 DB 25 -3 2 297
1966194N17303 1966 39 NA NA CELIA 1966-07-17 03:00:00 NR 23.5498 -74.0051 main 269 269 P_____________ AL031966 23.5498 -74.0051 DB 25 -3 3 290
1966194N17303 1966 39 NA NA CELIA 1966-07-17 06:00:00 NR 23.6000 -74.2000 25 hurdat_atl main 284 284 O_____________ hurdat_atl AL031966 23.6000 -74.2000 DB 25 -3 5 281
1966194N17303 1966 39 NA NA CELIA 1966-07-17 09:00:00 NR 23.6501 -74.5550 main 305 288 P_____________ AL031966 23.6501 -74.5550 DB 25 -3 7 278
1966194N17303 1966 39 NA NA CELIA 1966-07-17 12:00:00 NR 23.7000 -75.0000 25 hurdat_atl main 288 249 O_____________ hurdat_atl AL031966 23.7000 -75.0000 DB 25 -3 8 276
1966194N17303 1966 39 NA NA CELIA 1966-07-17 15:00:00 NR 23.7427 -75.4725 main 240 198 P_____________ AL031966 23.7427 -75.4725 DB 25 -3 8 277
1966194N17303 1966 39 NA NA CELIA 1966-07-17 18:00:00 NR 23.8000 -75.9000 25 hurdat_atl main 198 166 O_____________ hurdat_atl AL031966 23.8000 -75.9000 DB 25 -3 7 283
1966194N17303 1966 39 NA NA CELIA 1966-07-17 21:00:00 NR 23.8999 -76.2099 main 166 143 P_____________ AL031966 23.8999 -76.2099 DB 25 -3 5 294
1966194N17303 1966 39 NA NA CELIA 1966-07-18 00:00:00 NR 24.0000 -76.4000 25 hurdat_atl main 143 129 O_____________ hurdat_atl AL031966 24.0000 -76.4000 DB 25 -3 3 302
1966194N17303 1966 39 NA NA CELIA 1966-07-18 03:00:00 NR 24.0574 -76.4876 main 129 129 P_____________ AL031966 24.0574 -76.4876 DB 25 -3 1 320
1966194N17303 1966 39 NA NA CELIA 1966-07-18 06:00:00 NR 24.1000 -76.5000 25 hurdat_atl main 129 129 O_____________ hurdat_atl AL031966 24.1000 -76.5000 DB 25 -3 1 349
1966194N17303 1966 39 NA NA CELIA 1966-07-18 09:00:00 NR 24.1350 -76.5075 main 129 126 P_____________ AL031966 24.1350 -76.5075 DB 25 -3 1 0
1966194N17303 1966 39 NA NA CELIA 1966-07-18 12:00:00 NR 24.2000 -76.5000 25 hurdat_atl main 126 123 O_____________ hurdat_atl AL031966 24.2000 -76.5000 DB 25 -3 2 0
1966194N17303 1966 39 NA NA CELIA 1966-07-18 15:00:00 NR 24.2900 -76.5000 main 123 121 P_____________ AL031966 24.2900 -76.5000 DB 25 -3 3 0
1966194N17303 1966 39 NA NA CELIA 1966-07-18 18:00:00 TS 24.5000 -76.5000 25 hurdat_atl main 121 121 O_____________ hurdat_atl AL031966 24.5000 -76.5000 TD 25 -1 6 358
1966194N17303 1966 39 NA NA CELIA 1966-07-18 21:00:00 TS 24.9125 -76.5148 main 129 129 P_____________ AL031966 24.9125 -76.5148 TD 25 -1 9 0
1966194N17303 1966 39 NA NA CELIA 1966-07-19 00:00:00 TS 25.4000 -76.5000 25 hurdat_atl main 151 151 O_____________ hurdat_atl AL031966 25.4000 -76.5000 TD 25 -1 9 5
1966194N17303 1966 39 NA NA CELIA 1966-07-19 03:00:00 TS 25.8074 -76.4448 main 178 178 P_____________ AL031966 25.8074 -76.4448 TD 25 -1 8 13
1966194N17303 1966 39 NA NA CELIA 1966-07-19 06:00:00 TS 26.2000 -76.3000 25 hurdat_atl main 209 209 O_____________ hurdat_atl AL031966 26.2000 -76.3000 TD 25 -1 9 24
1966194N17303 1966 39 NA NA CELIA 1966-07-19 09:00:00 TS 26.5999 -76.0524 main 253 253 P_____________ AL031966 26.5999 -76.0524 TD 27 -1 10 34
1966194N17303 1966 39 NA NA CELIA 1966-07-19 12:00:00 TS 27.0000 -75.7000 30 hurdat_atl main 312 312 O_____________ hurdat_atl AL031966 27.0000 -75.7000 TD 30 -1 10 41
1966194N17303 1966 39 NA NA CELIA 1966-07-19 15:00:00 TS 27.3774 -75.2869 main 371 371 P_____________ AL031966 27.3774 -75.2869 TD 30 -1 11 45
1966194N17303 1966 39 NA NA CELIA 1966-07-19 18:00:00 TS 27.8000 -74.8000 30 hurdat_atl main 438 438 O_____________ hurdat_atl AL031966 27.8000 -74.8000 TD 30 -1 13 44
1966194N17303 1966 39 NA NA CELIA 1966-07-19 21:00:00 TS 28.3048 -74.2793 main 512 512 P_____________ AL031966 28.3048 -74.2793 TD 35 0 15 41
1966194N17303 1966 39 NA NA CELIA 1966-07-20 00:00:00 TS 28.9000 -73.7000 40 hurdat_atl main 600 600 O_____________ hurdat_atl AL031966 28.9000 -73.7000 TS 40 0 16 40
1966194N17303 1966 39 NA NA CELIA 1966-07-20 03:00:00 TS 29.5619 -73.0937 main 652 622 P_____________ AL031966 29.5619 -73.0937 TS 45 0 18 39
1966194N17303 1966 39 NA NA CELIA 1966-07-20 06:00:00 TS 30.3000 -72.4000 50 hurdat_atl main 622 608 O_____________ hurdat_atl AL031966 30.3000 -72.4000 TS 50 0 20 40
1966194N17303 1966 39 NA NA CELIA 1966-07-20 09:00:00 TS 31.0767 -71.6158 main 607 606 P_____________ AL031966 31.0767 -71.6158 TS 55 0 22 42
1966194N17303 1966 39 NA NA CELIA 1966-07-20 12:00:00 TS 31.9000 -70.7000 60 997 hurdat_atl main 617 617 O_____________ hurdat_atl AL031966 31.9000 -70.7000 TS 60 997 0 23 46
1966194N17303 1966 39 NA NA CELIA 1966-07-20 15:00:00 TS 32.6813 -69.6773 main 634 634 P_____________ AL031966 32.6813 -69.6773 TS 62 995 0 25 47
1966194N17303 1966 39 NA NA CELIA 1966-07-20 18:00:00 TS 33.6000 -68.5000 65 994 hurdat_atl main 683 683 O_____________ hurdat_atl AL031966 33.6000 -68.5000 HU 65 994 1 30 46
1966194N17303 1966 39 NA NA CELIA 1966-07-20 21:00:00 TS 34.7235 -67.1201 main 770 730 P_____________ AL031966 34.7235 -67.1201 HU 65 994 1 34 43
1966194N17303 1966 39 NA NA CELIA 1966-07-21 00:00:00 TS 36.1000 -65.7000 65 995 hurdat_atl main 725 654 O_____________ hurdat_atl AL031966 36.1000 -65.7000 HU 65 995 1 37 36
1966194N17303 1966 39 NA NA CELIA 1966-07-21 03:00:00 TS 37.7317 -64.3891 main 649 485 P_____________ AL031966 37.7317 -64.3891 HU 62 996 0 39 30
1966194N17303 1966 39 NA NA CELIA 1966-07-21 06:00:00 TS 39.5000 -63.2000 60 998 hurdat_atl main 477 367 O_____________ hurdat_atl AL031966 39.5000 -63.2000 TS 60 998 0 39 27
1966194N17303 1966 39 NA NA CELIA 1966-07-21 09:00:00 TS 41.1988 -62.1203 main 363 245 P_____________ AL031966 41.1988 -62.1203 TS 60 997 0 37 24
1966194N17303 1966 39 NA NA CELIA 1966-07-21 12:00:00 ET 42.9000 -61.2000 60 997 hurdat_atl main 235 95 O_____________ hurdat_atl AL031966 42.9000 -61.2000 EX 60 997 -4 36 20
1966194N17303 1966 39 NA NA CELIA 1966-07-21 15:00:00 ET 44.5911 -60.4048 main 86 7 P_____________ AL031966 44.5911 -60.4048 EX 57 -4 36 17
1966194N17303 1966 39 NA NA CELIA 1966-07-21 18:00:00 ET 46.3000 -59.7000 55 hurdat_atl main 13 0 O_____________ hurdat_atl AL031966 46.3000 -59.7000 EX 55 -4 37 16
1966194N17303 1966 39 NA NA CELIA 1966-07-21 21:00:00 ET 48.1396 -58.9291 main 0 0 P_____________ AL031966 48.1396 -58.9291 EX 52 -4 36 16
1966194N17303 1966 39 NA NA CELIA 1966-07-22 00:00:00 ET 49.8000 -58.2000 50 hurdat_atl main 18 18 O_____________ hurdat_atl AL031966 49.8000 -58.2000 EX 50 -4 30 17
1966194N17303 1966 39 NA NA CELIA 1966-07-22 03:00:00 ET 51.0327 -57.5703 main 35 0 P_____________ AL031966 51.0327 -57.5703 EX 45 -4 23 19
1966194N17303 1966 39 NA NA CELIA 1966-07-22 06:00:00 ET 52.0000 -57.0000 40 hurdat_atl main 0 O_____________ hurdat_atl AL031966 52.0000 -57.0000 EX 40 -4 21 20

IBTrACS Databaseについて

本データベースは、米国NOAAが公開する1842年以降の世界の熱帯低気圧のベストトラックデータアーカイブInternational Best Track Archive for Climate Stewardship (IBTrACS)を、ウェブで閲覧しやすい形式に変換したものです。

最終更新日:2022-11-16